sensor_id;sensor_type;location;lat;lon;timestamp;pressure;altitude;pressure_sealevel;temperature;humidity
76024;BME280;64719;52.124;6.226;2023-04-15T00:02:20;100980.31;;;6.66;74.12
76024;BME280;64719;52.124;6.226;2023-04-15T00:04:47;100985.44;;;6.48;75.00
76024;BME280;64719;52.124;6.226;2023-04-15T00:07:14;100990.25;;;6.59;74.22
76024;BME280;64719;52.124;6.226;2023-04-15T00:09:42;100984.81;;;6.53;74.82
76024;BME280;64719;52.124;6.226;2023-04-15T00:12:09;100980.34;;;6.73;73.97
76024;BME280;64719;52.124;6.226;2023-04-15T00:14:36;100983.81;;;6.54;74.46
76024;BME280;64719;52.124;6.226;2023-04-15T00:17:03;100988.59;;;6.65;74.63
76024;BME280;64719;52.124;6.226;2023-04-15T00:19:29;100987.91;;;6.50;75.47
76024;BME280;64719;52.124;6.226;2023-04-15T00:21:56;100977.91;;;6.37;75.58
76024;BME280;64719;52.124;6.226;2023-04-15T00:24:23;100986.50;;;6.54;75.67
76024;BME280;64719;52.124;6.226;2023-04-15T00:26:51;100980.50;;;6.65;75.49
76024;BME280;64719;52.124;6.226;2023-04-15T00:29:17;100983.38;;;6.50;75.77
76024;BME280;64719;52.124;6.226;2023-04-15T00:31:44;100990.25;;;6.59;76.10
76024;BME280;64719;52.124;6.226;2023-04-15T00:34:11;100984.41;;;6.49;76.21
76024;BME280;64719;52.124;6.226;2023-04-15T00:36:37;100989.94;;;6.35;76.49
76024;BME280;64719;52.124;6.226;2023-04-15T00:39:04;100988.56;;;6.52;76.56
76024;BME280;64719;52.124;6.226;2023-04-15T00:41:30;100986.41;;;6.34;76.91
76024;BME280;64719;52.124;6.226;2023-04-15T00:44:00;100997.97;;;6.28;77.30
76024;BME280;64719;52.124;6.226;2023-04-15T00:46:29;100998.56;;;6.24;78.67
76024;BME280;64719;52.124;6.226;2023-04-15T00:48:57;101001.25;;;6.17;78.37
76024;BME280;64719;52.124;6.226;2023-04-15T00:51:23;100994.63;;;6.20;78.72
76024;BME280;64719;52.124;6.226;2023-04-15T00:53:50;100992.56;;;6.22;78.56
76024;BME280;64719;52.124;6.226;2023-04-15T00:56:18;100993.47;;;6.35;78.95
76024;BME280;64719;52.124;6.226;2023-04-15T00:58:46;100990.56;;;6.37;79.08
76024;BME280;64719;52.124;6.226;2023-04-15T01:01:14;100992.44;;;6.36;78.96
76024;BME280;64719;52.124;6.226;2023-04-15T01:03:41;100991.97;;;6.26;79.34
76024;BME280;64719;52.124;6.226;2023-04-15T01:06:07;100987.75;;;6.11;79.87
76024;BME280;64719;52.124;6.226;2023-04-15T01:08:34;100986.88;;;6.04;80.23
76024;BME280;64719;52.124;6.226;2023-04-15T01:11:01;100991.16;;;5.92;81.78
76024;BME280;64719;52.124;6.226;2023-04-15T01:13:29;100993.41;;;5.88;81.44
76024;BME280;64719;52.124;6.226;2023-04-15T01:15:56;100996.19;;;5.74;82.10
76024;BME280;64719;52.124;6.226;2023-04-15T01:18:24;100991.00;;;5.72;82.53
76024;BME280;64719;52.124;6.226;2023-04-15T01:20:51;100999.47;;;5.69;82.38
76024;BME280;64719;52.124;6.226;2023-04-15T01:23:18;100991.69;;;5.81;82.85
76024;BME280;64719;52.124;6.226;2023-04-15T01:25:48;100993.38;;;5.82;82.29
76024;BME280;64719;52.124;6.226;2023-04-15T01:28:14;100998.97;;;5.59;82.87
76024;BME280;64719;52.124;6.226;2023-04-15T01:30:41;101001.31;;;5.68;83.10
76024;BME280;64719;52.124;6.226;2023-04-15T01:33:08;101004.06;;;5.75;83.08
76024;BME280;64719;52.124;6.226;2023-04-15T01:35:35;101003.38;;;5.66;83.31
76024;BME280;64719;52.124;6.226;2023-04-15T01:38:04;101005.66;;;5.69;83.95
76024;BME280;64719;52.124;6.226;2023-04-15T01:40:31;100991.81;;;5.72;83.40
76024;BME280;64719;52.124;6.226;2023-04-15T01:42:59;101003.44;;;5.73;83.31
76024;BME280;64719;52.124;6.226;2023-04-15T01:45:26;100992.72;;;5.80;83.73
76024;BME280;64719;52.124;6.226;2023-04-15T01:47:53;101002.41;;;5.74;83.90
76024;BME280;64719;52.124;6.226;2023-04-15T01:50:19;101003.75;;;5.85;83.76
76024;BME280;64719;52.124;6.226;2023-04-15T01:52:46;101005.84;;;5.89;83.25
76024;BME280;64719;52.124;6.226;2023-04-15T01:55:13;101003.16;;;5.89;83.39
76024;BME280;64719;52.124;6.226;2023-04-15T01:57:40;101011.31;;;5.75;84.22
76024;BME280;64719;52.124;6.226;2023-04-15T02:00:09;101004.13;;;5.82;84.15
76024;BME280;64719;52.124;6.226;2023-04-15T02:02:35;101015.81;;;5.68;84.88
76024;BME280;64719;52.124;6.226;2023-04-15T02:05:02;101009.78;;;5.65;85.46
76024;BME280;64719;52.124;6.226;2023-04-15T02:07:29;101017.28;;;5.70;85.51
76024;BME280;64719;52.124;6.226;2023-04-15T02:09:57;101019.50;;;5.60;85.04
76024;BME280;64719;52.124;6.226;2023-04-15T02:12:23;101019.53;;;5.66;85.76
76024;BME280;64719;52.124;6.226;2023-04-15T02:14:50;101022.91;;;5.75;85.79
76024;BME280;64719;52.124;6.226;2023-04-15T02:17:18;101016.03;;;5.66;85.85
76024;BME280;64719;52.124;6.226;2023-04-15T02:19:44;101014.44;;;5.50;86.37
76024;BME280;64719;52.124;6.226;2023-04-15T02:22:11;101022.31;;;5.52;85.96
76024;BME280;64719;52.124;6.226;2023-04-15T02:24:42;101021.66;;;5.50;86.49
76024;BME280;64719;52.124;6.226;2023-04-15T02:27:10;101032.22;;;5.45;86.96
76024;BME280;64719;52.124;6.226;2023-04-15T02:29:36;101030.38;;;5.52;87.00
76024;BME280;64719;52.124;6.226;2023-04-15T02:32:03;101037.00;;;5.49;87.45
76024;BME280;64719;52.124;6.226;2023-04-15T02:34:31;101031.81;;;5.48;86.93
76024;BME280;64719;52.124;6.226;2023-04-15T02:36:58;101042.06;;;5.38;87.67
76024;BME280;64719;52.124;6.226;2023-04-15T02:39:25;101044.56;;;5.39;87.76
76024;BME280;64719;52.124;6.226;2023-04-15T02:41:51;101045.41;;;5.40;87.93
76024;BME280;64719;52.124;6.226;2023-04-15T02:44:18;101048.22;;;5.32;88.38
76024;BME280;64719;52.124;6.226;2023-04-15T02:46:46;101044.13;;;5.15;87.93
76024;BME280;64719;52.124;6.226;2023-04-15T02:49:15;101044.63;;;5.25;89.03
76024;BME280;64719;52.124;6.226;2023-04-15T02:51:43;101041.44;;;5.15;88.92
76024;BME280;64719;52.124;6.226;2023-04-15T02:54:11;101048.75;;;5.21;89.08
76024;BME280;64719;52.124;6.226;2023-04-15T02:56:39;101054.34;;;5.26;89.00
76024;BME280;64719;52.124;6.226;2023-04-15T02:59:05;101061.63;;;5.25;89.40
76024;BME280;64719;52.124;6.226;2023-04-15T03:01:32;101050.78;;;5.19;89.23
76024;BME280;64719;52.124;6.226;2023-04-15T03:03:58;101057.13;;;5.11;89.13
76024;BME280;64719;52.124;6.226;2023-04-15T03:06:25;101050.19;;;5.02;89.62
76024;BME280;64719;52.124;6.226;2023-04-15T03:08:52;101052.13;;;5.08;89.82
76024;BME280;64719;52.124;6.226;2023-04-15T03:11:19;101058.06;;;5.04;89.93
76024;BME280;64719;52.124;6.226;2023-04-15T03:13:45;101055.63;;;5.09;90.21
76024;BME280;64719;52.124;6.226;2023-04-15T03:16:12;101061.38;;;5.06;90.51
76024;BME280;64719;52.124;6.226;2023-04-15T03:18:38;101059.25;;;5.01;90.61
76024;BME280;64719;52.124;6.226;2023-04-15T03:21:05;101061.56;;;5.04;91.01
76024;BME280;64719;52.124;6.226;2023-04-15T03:23:32;101064.03;;;4.99;91.03
76024;BME280;64719;52.124;6.226;2023-04-15T03:26:02;101061.44;;;4.91;90.22
76024;BME280;64719;52.124;6.226;2023-04-15T03:28:29;101059.69;;;4.84;91.05
76024;BME280;64719;52.124;6.226;2023-04-15T03:30:56;101066.44;;;4.94;91.56
76024;BME280;64719;52.124;6.226;2023-04-15T03:33:23;101061.53;;;4.83;91.16
76024;BME280;64719;52.124;6.226;2023-04-15T03:35:50;101070.06;;;4.87;91.09
76024;BME280;64719;52.124;6.226;2023-04-15T03:38:17;101067.84;;;4.90;92.06
76024;BME280;64719;52.124;6.226;2023-04-15T03:40:45;101072.09;;;4.85;91.12
76024;BME280;64719;52.124;6.226;2023-04-15T03:43:13;101070.44;;;4.84;91.24
76024;BME280;64719;52.124;6.226;2023-04-15T03:45:39;101070.38;;;4.77;91.41
76024;BME280;64719;52.124;6.226;2023-04-15T03:48:06;101082.53;;;4.73;92.18
76024;BME280;64719;52.124;6.226;2023-04-15T03:50:32;101085.41;;;4.72;92.48
76024;BME280;64719;52.124;6.226;2023-04-15T03:52:59;101087.72;;;4.75;92.07
76024;BME280;64719;52.124;6.226;2023-04-15T03:55:25;101083.09;;;4.69;92.70
76024;BME280;64719;52.124;6.226;2023-04-15T03:57:52;101094.00;;;4.82;92.34
76024;BME280;64719;52.124;6.226;2023-04-15T04:00:20;101092.91;;;4.76;92.61
76024;BME280;64719;52.124;6.226;2023-04-15T04:02:46;101095.78;;;4.75;92.74
76024;BME280;64719;52.124;6.226;2023-04-15T04:05:13;101089.50;;;4.68;93.21
76024;BME280;64719;52.124;6.226;2023-04-15T04:07:39;101086.53;;;4.63;93.90
76024;BME280;64719;52.124;6.226;2023-04-15T04:10:07;101100.88;;;4.70;94.04
76024;BME280;64719;52.124;6.226;2023-04-15T04:12:33;101106.25;;;4.70;94.01
76024;BME280;64719;52.124;6.226;2023-04-15T04:15:00;101108.50;;;4.66;93.85
76024;BME280;64719;52.124;6.226;2023-04-15T04:17:28;101104.25;;;4.57;94.15
76024;BME280;64719;52.124;6.226;2023-04-15T04:19:54;101109.25;;;4.60;94.81
76024;BME280;64719;52.124;6.226;2023-04-15T04:22:21;101111.75;;;4.62;94.83
76024;BME280;64719;52.124;6.226;2023-04-15T04:24:48;101108.13;;;4.55;95.20
76024;BME280;64719;52.124;6.226;2023-04-15T04:27:15;101110.63;;;4.56;95.39
76024;BME280;64719;52.124;6.226;2023-04-15T04:29:42;101121.94;;;4.66;94.96
76024;BME280;64719;52.124;6.226;2023-04-15T04:32:09;101119.25;;;4.66;94.99
76024;BME280;64719;52.124;6.226;2023-04-15T04:34:37;101117.13;;;4.62;95.25
76024;BME280;64719;52.124;6.226;2023-04-15T04:37:03;101127.75;;;4.70;95.40
76024;BME280;64719;52.124;6.226;2023-04-15T04:39:31;101134.88;;;4.77;95.24
76024;BME280;64719;52.124;6.226;2023-04-15T04:41:58;101130.53;;;4.76;95.15
76024;BME280;64719;52.124;6.226;2023-04-15T04:44:25;101134.25;;;4.75;95.20
76024;BME280;64719;52.124;6.226;2023-04-15T04:46:51;101136.19;;;4.81;95.53
76024;BME280;64719;52.124;6.226;2023-04-15T04:49:18;101142.47;;;4.88;94.77
76024;BME280;64719;52.124;6.226;2023-04-15T04:51:46;101147.00;;;4.88;95.51
76024;BME280;64719;52.124;6.226;2023-04-15T04:54:13;101142.09;;;4.91;94.76
76024;BME280;64719;52.124;6.226;2023-04-15T04:56:40;101151.06;;;4.98;94.80
76024;BME280;64719;52.124;6.226;2023-04-15T04:59:06;101152.56;;;5.01;93.94
76024;BME280;64719;52.124;6.226;2023-04-15T05:01:33;101155.25;;;5.01;94.11
76024;BME280;64719;52.124;6.226;2023-04-15T05:04:00;101154.59;;;4.99;94.74
76024;BME280;64719;52.124;6.226;2023-04-15T05:06:27;101160.69;;;5.07;94.40
76024;BME280;64719;52.124;6.226;2023-04-15T05:08:56;101164.22;;;5.08;94.60
76024;BME280;64719;52.124;6.226;2023-04-15T05:11:23;101163.66;;;5.12;93.59
76024;BME280;64719;52.124;6.226;2023-04-15T05:13:49;101172.00;;;5.17;94.32
76024;BME280;64719;52.124;6.226;2023-04-15T05:16:16;101175.22;;;5.27;93.39
76024;BME280;64719;52.124;6.226;2023-04-15T05:18:44;101173.91;;;5.38;92.99
76024;BME280;64719;52.124;6.226;2023-04-15T05:21:10;101173.78;;;5.46;93.17
76024;BME280;64719;52.124;6.226;2023-04-15T05:23:37;101174.88;;;5.51;92.76
76024;BME280;64719;52.124;6.226;2023-04-15T05:26:05;101178.91;;;5.62;92.54
76024;BME280;64719;52.124;6.226;2023-04-15T05:28:31;101192.25;;;5.70;92.13
76024;BME280;64719;52.124;6.226;2023-04-15T05:30:58;101187.22;;;5.82;91.93
76024;BME280;64719;52.124;6.226;2023-04-15T05:33:24;101195.19;;;5.90;91.26
76024;BME280;64719;52.124;6.226;2023-04-15T05:35:51;101188.44;;;6.00;90.86
76024;BME280;64719;52.124;6.226;2023-04-15T05:38:18;101193.91;;;6.07;90.98
76024;BME280;64719;52.124;6.226;2023-04-15T05:40:44;101186.69;;;6.14;90.07
76024;BME280;64719;52.124;6.226;2023-04-15T05:43:12;101204.28;;;6.37;89.98
76024;BME280;64719;52.124;6.226;2023-04-15T05:45:39;101200.47;;;6.80;88.15
76024;BME280;64719;52.124;6.226;2023-04-15T05:48:05;101205.31;;;6.98;87.04
76024;BME280;64719;52.124;6.226;2023-04-15T05:50:32;101202.13;;;7.82;85.06
76024;BME280;64719;52.124;6.226;2023-04-15T05:52:59;101207.66;;;9.11;79.03
76024;BME280;64719;52.124;6.226;2023-04-15T05:55:26;101216.16;;;9.27;76.16
76024;BME280;64719;52.124;6.226;2023-04-15T05:57:52;101222.63;;;10.02;73.93
76024;BME280;64719;52.124;6.226;2023-04-15T06:00:20;101221.13;;;10.86;69.13
76024;BME280;64719;52.124;6.226;2023-04-15T06:02:47;101224.75;;;11.70;66.87
76024;BME280;64719;52.124;6.226;2023-04-15T06:05:13;101232.81;;;11.77;66.53
76024;BME280;64719;52.124;6.226;2023-04-15T06:07:40;101224.59;;;11.95;63.32
76024;BME280;64719;52.124;6.226;2023-04-15T06:10:08;101238.13;;;12.54;62.32
76024;BME280;64719;52.124;6.226;2023-04-15T06:12:35;101248.53;;;12.04;63.51
76024;BME280;64719;52.124;6.226;2023-04-15T06:15:01;101240.38;;;11.57;64.01
76024;BME280;64719;52.124;6.226;2023-04-15T06:17:29;101245.56;;;11.04;66.08
76024;BME280;64719;52.124;6.226;2023-04-15T06:19:56;101251.41;;;10.40;68.95
76024;BME280;64719;52.124;6.226;2023-04-15T06:22:23;101257.66;;;10.10;70.25
76024;BME280;64719;52.124;6.226;2023-04-15T06:24:50;101263.53;;;9.94;70.71
76024;BME280;64719;52.124;6.226;2023-04-15T06:27:16;101263.16;;;9.46;71.84
76024;BME280;64719;52.124;6.226;2023-04-15T06:29:43;101262.09;;;9.47;73.03
76024;BME280;64719;52.124;6.226;2023-04-15T06:32:09;101272.16;;;9.33;74.36
76024;BME280;64719;52.124;6.226;2023-04-15T06:34:37;101273.00;;;9.27;73.84
76024;BME280;64719;52.124;6.226;2023-04-15T06:37:04;101281.13;;;9.27;74.43
76024;BME280;64719;52.124;6.226;2023-04-15T06:39:30;101289.72;;;9.11;75.00
76024;BME280;64719;52.124;6.226;2023-04-15T06:41:57;101293.66;;;9.15;75.95
76024;BME280;64719;52.124;6.226;2023-04-15T06:44:24;101293.28;;;9.12;74.87
76024;BME280;64719;52.124;6.226;2023-04-15T06:46:50;101299.88;;;9.36;75.38
76024;BME280;64719;52.124;6.226;2023-04-15T06:49:16;101304.56;;;9.60;74.61
76024;BME280;64719;52.124;6.226;2023-04-15T06:51:44;101308.66;;;10.26;71.63
76024;BME280;64719;52.124;6.226;2023-04-15T06:54:11;101304.19;;;10.38;70.94
76024;BME280;64719;52.124;6.226;2023-04-15T06:56:37;101305.88;;;10.63;70.54
76024;BME280;64719;52.124;6.226;2023-04-15T06:59:04;101305.56;;;10.78;69.29
76024;BME280;64719;52.124;6.226;2023-04-15T07:01:31;101308.13;;;10.73;69.82
76024;BME280;64719;52.124;6.226;2023-04-15T07:03:57;101311.34;;;9.88;72.04
76024;BME280;64719;52.124;6.226;2023-04-15T07:06:23;101319.19;;;9.59;72.58
76024;BME280;64719;52.124;6.226;2023-04-15T07:08:51;101326.75;;;9.94;72.61
76024;BME280;64719;52.124;6.226;2023-04-15T07:11:18;101314.78;;;10.46;71.25
76024;BME280;64719;52.124;6.226;2023-04-15T07:13:46;101328.50;;;10.20;71.95
76024;BME280;64719;52.124;6.226;2023-04-15T07:16:12;101335.66;;;10.45;71.02
76024;BME280;64719;52.124;6.226;2023-04-15T07:18:39;101332.31;;;10.06;71.68
76024;BME280;64719;52.124;6.226;2023-04-15T07:21:05;101336.50;;;10.02;72.88
76024;BME280;64719;52.124;6.226;2023-04-15T07:23:32;101339.53;;;10.31;71.94
76024;BME280;64719;52.124;6.226;2023-04-15T07:26:00;101343.09;;;10.56;71.23
76024;BME280;64719;52.124;6.226;2023-04-15T07:28:26;101345.53;;;10.33;70.29
76024;BME280;64719;52.124;6.226;2023-04-15T07:30:53;101346.72;;;10.75;70.03
76024;BME280;64719;52.124;6.226;2023-04-15T07:33:21;101343.28;;;11.10;68.92
76024;BME280;64719;52.124;6.226;2023-04-15T07:35:47;101348.34;;;11.25;67.69
76024;BME280;64719;52.124;6.226;2023-04-15T07:38:14;101337.00;;;11.35;67.06
76024;BME280;64719;52.124;6.226;2023-04-15T07:40:41;101334.84;;;11.97;64.93
76024;BME280;64719;52.124;6.226;2023-04-15T07:43:09;101337.75;;;12.43;63.74
76024;BME280;64719;52.124;6.226;2023-04-15T07:45:35;101338.66;;;12.26;63.36
76024;BME280;64719;52.124;6.226;2023-04-15T07:48:02;101337.97;;;12.94;62.84
76024;BME280;64719;52.124;6.226;2023-04-15T07:50:28;101348.41;;;12.86;61.68
76024;BME280;64719;52.124;6.226;2023-04-15T07:52:55;101342.97;;;14.29;57.86
76024;BME280;64719;52.124;6.226;2023-04-15T07:55:22;101344.41;;;14.48;56.63
76024;BME280;64719;52.124;6.226;2023-04-15T07:57:49;101351.81;;;14.64;55.62
76024;BME280;64719;52.124;6.226;2023-04-15T08:00:17;101356.97;;;14.78;55.84
76024;BME280;64719;52.124;6.226;2023-04-15T08:02:44;101354.97;;;14.28;57.37
76024;BME280;64719;52.124;6.226;2023-04-15T08:05:12;101365.22;;;14.38;56.28
76024;BME280;64719;52.124;6.226;2023-04-15T08:07:39;101367.31;;;13.45;58.88
76024;BME280;64719;52.124;6.226;2023-04-15T08:10:06;101365.53;;;13.16;59.68
76024;BME280;64719;52.124;6.226;2023-04-15T08:12:33;101369.44;;;13.20;59.38
76024;BME280;64719;52.124;6.226;2023-04-15T08:14:59;101368.03;;;13.41;59.00
76024;BME280;64719;52.124;6.226;2023-04-15T08:17:28;101382.34;;;13.13;60.04
76024;BME280;64719;52.124;6.226;2023-04-15T08:19:55;101376.69;;;11.96;61.95
76024;BME280;64719;52.124;6.226;2023-04-15T08:22:22;101380.28;;;12.26;62.43
76024;BME280;64719;52.124;6.226;2023-04-15T08:24:48;101379.00;;;12.58;61.93
76024;BME280;64719;52.124;6.226;2023-04-15T08:27:15;101376.81;;;12.78;61.61
76024;BME280;64719;52.124;6.226;2023-04-15T08:29:42;101373.00;;;12.79;60.89
76024;BME280;64719;52.124;6.226;2023-04-15T08:32:09;101380.16;;;12.92;61.61
76024;BME280;64719;52.124;6.226;2023-04-15T08:34:37;101390.44;;;12.78;60.43
76024;BME280;64719;52.124;6.226;2023-04-15T08:37:04;101383.47;;;12.94;60.05
76024;BME280;64719;52.124;6.226;2023-04-15T08:39:31;101391.94;;;13.04;61.15
76024;BME280;64719;52.124;6.226;2023-04-15T08:42:00;101388.00;;;12.59;61.23
76024;BME280;64719;52.124;6.226;2023-04-15T08:44:29;101394.47;;;12.28;61.87
76024;BME280;64719;52.124;6.226;2023-04-15T08:47:00;101392.81;;;12.45;62.77
76024;BME280;64719;52.124;6.226;2023-04-15T08:49:28;101402.91;;;12.09;63.90
76024;BME280;64719;52.124;6.226;2023-04-15T08:51:57;101403.03;;;12.61;62.94
76024;BME280;64719;52.124;6.226;2023-04-15T08:54:24;101407.31;;;12.69;62.07
76024;BME280;64719;52.124;6.226;2023-04-15T08:56:51;101406.78;;;13.54;60.59
76024;BME280;64719;52.124;6.226;2023-04-15T08:59:19;101419.22;;;13.50;59.50
76024;BME280;64719;52.124;6.226;2023-04-15T09:01:47;101422.75;;;14.08;58.31
76024;BME280;64719;52.124;6.226;2023-04-15T09:04:15;101419.94;;;13.92;58.09
76024;BME280;64719;52.124;6.226;2023-04-15T09:06:42;101415.31;;;13.81;57.80
76024;BME280;64719;52.124;6.226;2023-04-15T09:09:11;101416.53;;;14.36;56.59
76024;BME280;64719;52.124;6.226;2023-04-15T09:11:38;101411.81;;;15.04;54.18
76024;BME280;64719;52.124;6.226;2023-04-15T09:14:05;101422.88;;;14.53;55.50
76024;BME280;64719;52.124;6.226;2023-04-15T09:16:55;101422.31;;;14.39;56.32
76024;BME280;64719;52.124;6.226;2023-04-15T09:19:22;101426.00;;;16.05;52.47
76024;BME280;64719;52.124;6.226;2023-04-15T09:21:49;101436.13;;;16.05;52.15
76024;BME280;64719;52.124;6.226;2023-04-15T09:24:17;101429.38;;;16.77;51.29
76024;BME280;64719;52.124;6.226;2023-04-15T09:26:44;101431.75;;;16.69;50.37
76024;BME280;64719;52.124;6.226;2023-04-15T09:29:11;101435.28;;;16.91;50.89
76024;BME280;64719;52.124;6.226;2023-04-15T09:31:39;101448.81;;;15.73;53.25
76024;BME280;64719;52.124;6.226;2023-04-15T09:34:05;101439.16;;;16.47;51.79
76024;BME280;64719;52.124;6.226;2023-04-15T09:36:40;101445.16;;;14.90;53.55
76024;BME280;64719;52.124;6.226;2023-04-15T09:39:18;101452.88;;;14.02;56.83
76024;BME280;64719;52.124;6.226;2023-04-15T09:41:44;101448.97;;;13.40;58.96
76024;BME280;64719;52.124;6.226;2023-04-15T09:44:20;101449.47;;;13.72;58.14
76024;BME280;64719;52.124;6.226;2023-04-15T09:46:47;101458.94;;;13.46;58.98
76024;BME280;64719;52.124;6.226;2023-04-15T09:49:14;101456.13;;;13.64;57.46
76024;BME280;64719;52.124;6.226;2023-04-15T09:51:42;101468.63;;;13.31;58.20
76024;BME280;64719;52.124;6.226;2023-04-15T09:54:08;101471.06;;;13.96;58.31
76024;BME280;64719;52.124;6.226;2023-04-15T09:56:37;101487.13;;;15.28;54.68
76024;BME280;64719;52.124;6.226;2023-04-15T09:59:06;101481.56;;;15.51;51.38
76024;BME280;64719;52.124;6.226;2023-04-15T10:01:33;101472.22;;;15.19;52.62
76024;BME280;64719;52.124;6.226;2023-04-15T10:04:02;101478.75;;;15.18;52.43
76024;BME280;64719;52.124;6.226;2023-04-15T10:06:29;101477.59;;;14.58;55.11
76024;BME280;64719;52.124;6.226;2023-04-15T10:08:56;101480.53;;;13.82;56.85
76024;BME280;64719;52.124;6.226;2023-04-15T10:11:25;101481.59;;;13.70;58.15
76024;BME280;64719;52.124;6.226;2023-04-15T10:13:55;101482.06;;;14.01;57.68
76024;BME280;64719;52.124;6.226;2023-04-15T10:16:25;101490.63;;;13.93;58.48
76024;BME280;64719;52.124;6.226;2023-04-15T10:18:54;101480.28;;;13.61;59.56
76024;BME280;64719;52.124;6.226;2023-04-15T10:21:21;101496.78;;;13.02;60.08
76024;BME280;64719;52.124;6.226;2023-04-15T10:23:48;101485.09;;;13.24;60.97
76024;BME280;64719;52.124;6.226;2023-04-15T10:26:15;101481.28;;;13.14;60.73
76024;BME280;64719;52.124;6.226;2023-04-15T10:28:42;101492.88;;;13.09;60.81
76024;BME280;64719;52.124;6.226;2023-04-15T10:31:11;101496.31;;;14.78;58.13
76024;BME280;64719;52.124;6.226;2023-04-15T10:33:39;101485.16;;;13.70;56.95
76024;BME280;64719;52.124;6.226;2023-04-15T10:36:06;101487.53;;;13.67;57.70
76024;BME280;64719;52.124;6.226;2023-04-15T10:38:35;101501.31;;;14.29;56.85
76024;BME280;64719;52.124;6.226;2023-04-15T10:41:12;101502.28;;;15.47;53.55
76024;BME280;64719;52.124;6.226;2023-04-15T10:43:39;101499.09;;;14.94;53.62
76024;BME280;64719;52.124;6.226;2023-04-15T10:46:11;101501.22;;;14.64;54.69
76024;BME280;64719;52.124;6.226;2023-04-15T10:48:46;101495.25;;;13.93;57.00
76024;BME280;64719;52.124;6.226;2023-04-15T10:51:12;101492.75;;;14.26;56.40
76024;BME280;64719;52.124;6.226;2023-04-15T10:53:40;101502.22;;;14.35;55.62
76024;BME280;64719;52.124;6.226;2023-04-15T10:56:08;101502.94;;;14.07;56.96
76024;BME280;64719;52.124;6.226;2023-04-15T10:58:41;101509.38;;;14.24;56.27
76024;BME280;64719;52.124;6.226;2023-04-15T11:01:07;101500.38;;;14.75;55.34
76024;BME280;64719;52.124;6.226;2023-04-15T11:03:39;101499.19;;;14.99;53.40
76024;BME280;64719;52.124;6.226;2023-04-15T11:06:08;101501.88;;;13.97;55.69
76024;BME280;64719;52.124;6.226;2023-04-15T11:08:57;101499.63;;;14.17;56.83
76024;BME280;64719;52.124;6.226;2023-04-15T11:12:04;101505.34;;;13.81;56.37
76024;BME280;64719;52.124;6.226;2023-04-15T11:14:32;101505.94;;;14.29;56.16
76024;BME280;64719;52.124;6.226;2023-04-15T11:16:58;101506.19;;;14.67;55.06
76024;BME280;64719;52.124;6.226;2023-04-15T11:19:34;101510.56;;;14.80;53.84
76024;BME280;64719;52.124;6.226;2023-04-15T11:22:05;101509.50;;;14.29;54.94
76024;BME280;64719;52.124;6.226;2023-04-15T11:24:32;101518.63;;;14.35;55.59
76024;BME280;64719;52.124;6.226;2023-04-15T11:27:00;101523.63;;;15.34;51.78
76024;BME280;64719;52.124;6.226;2023-04-15T11:29:28;101519.06;;;16.82;49.23
76024;BME280;64719;52.124;6.226;2023-04-15T11:32:03;101524.88;;;14.47;54.94
76024;BME280;64719;52.124;6.226;2023-04-15T11:34:31;101527.19;;;14.27;55.35
76024;BME280;64719;52.124;6.226;2023-04-15T11:36:57;101518.59;;;15.42;52.80
76024;BME280;64719;52.124;6.226;2023-04-15T11:39:24;101529.88;;;14.90;54.16
76024;BME280;64719;52.124;6.226;2023-04-15T11:41:50;101530.97;;;14.37;54.84
76024;BME280;64719;52.124;6.226;2023-04-15T11:44:17;101535.00;;;14.46;54.54
76024;BME280;64719;52.124;6.226;2023-04-15T11:46:44;101532.88;;;14.37;55.29
76024;BME280;64719;52.124;6.226;2023-04-15T11:49:10;101545.88;;;13.54;58.24
76024;BME280;64719;52.124;6.226;2023-04-15T11:51:38;101539.28;;;14.19;57.73
76024;BME280;64719;52.124;6.226;2023-04-15T11:54:05;101540.81;;;14.90;54.32
76024;BME280;64719;52.124;6.226;2023-04-15T11:56:31;101539.06;;;15.40;53.75
76024;BME280;64719;52.124;6.226;2023-04-15T11:58:58;101549.94;;;13.86;56.31
76024;BME280;64719;52.124;6.226;2023-04-15T12:01:30;101546.88;;;13.30;58.79
76024;BME280;64719;52.124;6.226;2023-04-15T12:03:56;101553.03;;;13.37;58.98
76024;BME280;64719;52.124;6.226;2023-04-15T12:06:31;101553.25;;;14.00;56.11
76024;BME280;64719;52.124;6.226;2023-04-15T12:09:05;101567.44;;;13.56;57.39
76024;BME280;64719;52.124;6.226;2023-04-15T12:11:42;101568.50;;;13.14;60.23
76024;BME280;64719;52.124;6.226;2023-04-15T12:14:11;101568.25;;;12.79;61.92
76024;BME280;64719;52.124;6.226;2023-04-15T12:16:40;101568.28;;;12.97;61.00
76024;BME280;64719;52.124;6.226;2023-04-15T12:19:09;101577.63;;;13.19;59.87
76024;BME280;64719;52.124;6.226;2023-04-15T12:21:38;101570.59;;;13.12;59.60
76024;BME280;64719;52.124;6.226;2023-04-15T12:24:07;101588.97;;;13.46;58.87
76024;BME280;64719;52.124;6.226;2023-04-15T12:26:36;101591.03;;;13.21;59.59
76024;BME280;64719;52.124;6.226;2023-04-15T12:29:04;101581.22;;;12.83;59.98
76024;BME280;64719;52.124;6.226;2023-04-15T12:31:31;101586.34;;;13.10;60.78
76024;BME280;64719;52.124;6.226;2023-04-15T12:33:58;101608.53;;;13.13;60.04
76024;BME280;64719;52.124;6.226;2023-04-15T12:36:26;101589.31;;;13.38;58.76
76024;BME280;64719;52.124;6.226;2023-04-15T12:38:52;101600.44;;;13.07;59.64
76024;BME280;64719;52.124;6.226;2023-04-15T12:41:21;101592.53;;;12.80;60.60
76024;BME280;64719;52.124;6.226;2023-04-15T12:43:48;101603.53;;;12.92;60.61
76024;BME280;64719;52.124;6.226;2023-04-15T12:46:15;101594.19;;;13.47;59.83
76024;BME280;64719;52.124;6.226;2023-04-15T12:48:42;101611.63;;;13.46;59.95
76024;BME280;64719;52.124;6.226;2023-04-15T12:51:08;101628.66;;;12.94;60.80
76024;BME280;64719;52.124;6.226;2023-04-15T12:53:35;101614.03;;;12.70;60.93
76024;BME280;64719;52.124;6.226;2023-04-15T12:56:01;101618.28;;;12.84;60.27
76024;BME280;64719;52.124;6.226;2023-04-15T12:58:29;101608.13;;;12.37;61.43